ADDS METAR Data INFO
IDs: Format: Raw Decoded Include TAF

Data at: 0754 UTC 17 Oct 2017

KAIA 170653Z AUTO 26007KT 10SM CLR M01/M04 A3016 RMK AO2 SLP202 T10061039 402391044
KAIA 170553Z AUTO 27008KT 10SM CLR M01/M04 A3017 RMK AO2 SLP208 T10111039 10172 21011 51002
KAIA 170453Z AUTO 29006KT 10SM CLR M01/M04 A3017 RMK AO2 SLP209 T10061039
KAIA 170353Z AUTO 28005KT 10SM CLR 01/M03 A3017 RMK AO2 SLP217 T00111028
KAIA 170253Z AUTO 29005KT 10SM CLR 04/M03 A3016 RMK AO2 SLP222 T00391028 51013
KAIA 170153Z AUTO 36009KT 10SM CLR 10/M03 A3015 RMK AO2 SLP217 T01001028
KAIA 170053Z AUTO 35008KT 10SM CLR 12/M03 A3014 RMK AO2 SLP212 T01221028
KAIA 162353Z AUTO 35007KT 10SM CLR 17/M03 A3012 RMK AO2 SLP198 T01721028 10239 20172 53006
KAIA 162253Z AUTO 35008KT 10SM CLR 21/M02 A3011 RMK AO2 SLP190 T02061022
KAIA 162153Z AUTO 30017KT 10SM CLR 24/M07 A3010 RMK AO2 SLP180 T02391067
KAIA 162053Z AUTO 29010KT 10SM CLR 22/M07 A3010 RMK AO2 SLP179 T02221067 56021
KAIA 161953Z AUTO 10SM CLR 23/M07 A3011 RMK AO2 SLP181 T02281072
KAIA 161853Z AUTO 27015KT 10SM CLR 22/M08 A3014 RMK AO2 SLP188 T02221083
KAIA 161753Z AUTO 10SM CLR 21/M07 A3016 RMK AO2 SLP205 T02061067 10217 21033 58016
KAIA 161653Z AUTO 10SM CLR 19/M04 A3018 RMK AO2 SLP212 T01941044
KAIA 161553Z AUTO 25006KT 10SM CLR 13/M01 A3021 RMK AO2 SLP229 T01281006
KAIA 161453Z AUTO 27004KT 10SM CLR 05/M01 A3022 RMK AO2 SLP242 T00501006 55003
KAIA 161353Z AUTO 28004KT 10SM CLR 00/M03 A3022 RMK AO2 SLP251 T00001033
KAIA 161253Z AUTO 28006KT 10SM CLR M03/M06 A3022 RMK AO2 SLP249 T10281056
KAIA 161153Z AUTO 00000KT 10SM CLR M03/M06 A3023 RMK AO2 SLP243 T10281061 10028 21044 56008
KAIA 161053Z AUTO 24005KT 10SM CLR M03/M06 A3024 RMK AO2 SLP243 T10331056
KAIA 160953Z AUTO 00000KT 10SM CLR M02/M05 A3025 RMK AO2 SLP243 T10221050
KAIA 160853Z AUTO 19007KT 10SM CLR 00/M04 A3026 RMK AO2 SLP244 T00001039 56017
KAIA 160753Z AUTO 16006KT 10SM CLR 02/M03 A3028 RMK AO2 SLP249 T00171033
KAIA 160653Z AUTO 18009KT 10SM CLR 03/M03 A3029 RMK AO2 SLP254 T00281028 401671072
KAIA 160553Z AUTO 20004KT 10SM CLR 01/M04 A3031 RMK AO2 SLP266 T00061039 10133 21011 58011
KAIA 160453Z AUTO 00000KT 10SM CLR 01/M04 A3034 RMK AO2 SLP275 T00061039
KAIA 160353Z AUTO 17005KT 10SM CLR 02/M04 A3034 RMK AO2 SLP282 T00171039
KAIA 160253Z AUTO 10004KT 10SM CLR 04/M03 A3035 RMK AO2 SLP290 T00391033 53007
KAIA 160153Z AUTO 13005KT 10SM CLR 03/M03 A3033 RMK AO2 SLP295 T00331028
KAIA 160053Z AUTO 14003KT 10SM CLR 08/M03 A3033 RMK AO2 SLP293 T00781033
KAIA 152353Z AUTO 32003KT 10SM CLR 13/M04 A3033 RMK AO2 SLP283 T01331039 10167 20133 56006
KAIA 152253Z AUTO 32005KT 10SM CLR 16/M05 A3033 RMK AO2 SLP281 T01561050 $
KAIA 152153Z AUTO 30010KT 10SM CLR 16/M05 A3034 RMK AO2 SLP282 T01611050 $
KAIA 152053Z AUTO 33008KT 10SM CLR 16/M05 A3035 RMK AO2 SLP285 T01611050 57015 $